sensor_id;sensor_type;location;lat;lon;timestamp;P1;durP1;ratioP1;P2;durP2;ratioP2
39888;SDS011;25563;50.844;4.308;2022-07-30T00:01:26;11.45;;;4.47;;
39888;SDS011;25563;50.844;4.308;2022-07-30T00:03:51;14.73;;;4.63;;
39888;SDS011;25563;50.844;4.308;2022-07-30T00:06:18;10.20;;;4.63;;
39888;SDS011;25563;50.844;4.308;2022-07-30T00:08:44;8.48;;;4.20;;
39888;SDS011;25563;50.844;4.308;2022-07-30T00:11:10;13.68;;;5.32;;
39888;SDS011;25563;50.844;4.308;2022-07-30T00:13:36;10.57;;;5.13;;
39888;SDS011;25563;50.844;4.308;2022-07-30T00:16:02;5.45;;;4.53;;
39888;SDS011;25563;50.844;4.308;2022-07-30T00:18:27;9.05;;;4.88;;
39888;SDS011;25563;50.844;4.308;2022-07-30T00:20:54;8.23;;;4.15;;
39888;SDS011;25563;50.844;4.308;2022-07-30T00:23:20;9.50;;;5.40;;
39888;SDS011;25563;50.844;4.308;2022-07-30T00:25:47;14.18;;;5.50;;
39888;SDS011;25563;50.844;4.308;2022-07-30T00:28:12;17.23;;;5.43;;
39888;SDS011;25563;50.844;4.308;2022-07-30T00:30:38;14.63;;;5.20;;
39888;SDS011;25563;50.844;4.308;2022-07-30T00:33:04;9.90;;;5.47;;
39888;SDS011;25563;50.844;4.308;2022-07-30T00:35:31;11.18;;;6.28;;
39888;SDS011;25563;50.844;4.308;2022-07-30T00:37:57;9.02;;;5.57;;
39888;SDS011;25563;50.844;4.308;2022-07-30T00:40:23;14.05;;;7.00;;
39888;SDS011;25563;50.844;4.308;2022-07-30T00:42:49;11.52;;;6.50;;
39888;SDS011;25563;50.844;4.308;2022-07-30T00:45:16;21.40;;;7.75;;
39888;SDS011;25563;50.844;4.308;2022-07-30T00:47:43;15.73;;;7.32;;
39888;SDS011;25563;50.844;4.308;2022-07-30T00:50:11;12.65;;;6.80;;
39888;SDS011;25563;50.844;4.308;2022-07-30T00:52:38;13.38;;;6.88;;
39888;SDS011;25563;50.844;4.308;2022-07-30T00:55:05;8.48;;;7.63;;
39888;SDS011;25563;50.844;4.308;2022-07-30T00:57:35;8.10;;;7.10;;
39888;SDS011;25563;50.844;4.308;2022-07-30T01:00:02;16.75;;;7.32;;
39888;SDS011;25563;50.844;4.308;2022-07-30T01:04:57;7.22;;;6.55;;
39888;SDS011;25563;50.844;4.308;2022-07-30T01:07:23;13.73;;;6.18;;
39888;SDS011;25563;50.844;4.308;2022-07-30T01:09:48;15.68;;;6.38;;
39888;SDS011;25563;50.844;4.308;2022-07-30T01:12:15;14.05;;;6.32;;
39888;SDS011;25563;50.844;4.308;2022-07-30T01:14:44;10.60;;;6.47;;
39888;SDS011;25563;50.844;4.308;2022-07-30T01:17:10;8.38;;;6.40;;
39888;SDS011;25563;50.844;4.308;2022-07-30T01:19:38;10.60;;;6.47;;
39888;SDS011;25563;50.844;4.308;2022-07-30T01:22:18;14.05;;;7.00;;
39888;SDS011;25563;50.844;4.308;2022-07-30T01:28:08;8.73;;;6.40;;
39888;SDS011;25563;50.844;4.308;2022-07-30T01:30:41;12.63;;;6.82;;
39888;SDS011;25563;50.844;4.308;2022-07-30T01:33:10;14.02;;;6.95;;
39888;SDS011;25563;50.844;4.308;2022-07-30T01:35:39;8.57;;;6.22;;
39888;SDS011;25563;50.844;4.308;2022-07-30T01:38:08;10.32;;;6.68;;
39888;SDS011;25563;50.844;4.308;2022-07-30T01:40:35;19.23;;;8.32;;
39888;SDS011;25563;50.844;4.308;2022-07-30T01:43:03;8.77;;;6.97;;
39888;SDS011;25563;50.844;4.308;2022-07-30T01:45:32;13.52;;;7.18;;
39888;SDS011;25563;50.844;4.308;2022-07-30T01:48:02;15.68;;;8.30;;
39888;SDS011;25563;50.844;4.308;2022-07-30T01:50:31;12.98;;;8.00;;
39888;SDS011;25563;50.844;4.308;2022-07-30T01:52:58;9.45;;;7.65;;
39888;SDS011;25563;50.844;4.308;2022-07-30T01:55:38;16.77;;;7.68;;
39888;SDS011;25563;50.844;4.308;2022-07-30T01:58:06;19.02;;;7.57;;
39888;SDS011;25563;50.844;4.308;2022-07-30T02:00:35;14.02;;;7.68;;
39888;SDS011;25563;50.844;4.308;2022-07-30T02:03:05;9.95;;;7.75;;
39888;SDS011;25563;50.844;4.308;2022-07-30T02:05:33;15.43;;;7.97;;
39888;SDS011;25563;50.844;4.308;2022-07-30T02:08:06;14.75;;;7.47;;
39888;SDS011;25563;50.844;4.308;2022-07-30T02:10:40;12.65;;;8.68;;
39888;SDS011;25563;50.844;4.308;2022-07-30T02:13:12;10.40;;;7.05;;
39888;SDS011;25563;50.844;4.308;2022-07-30T02:15:48;12.73;;;7.95;;
39888;SDS011;25563;50.844;4.308;2022-07-30T02:18:22;14.48;;;9.00;;
39888;SDS011;25563;50.844;4.308;2022-07-30T02:21:04;11.50;;;8.68;;
39888;SDS011;25563;50.844;4.308;2022-07-30T02:23:43;10.70;;;7.95;;
39888;SDS011;25563;50.844;4.308;2022-07-30T02:26:13;19.58;;;8.80;;
39888;SDS011;25563;50.844;4.308;2022-07-30T02:28:43;9.80;;;7.97;;
39888;SDS011;25563;50.844;4.308;2022-07-30T02:31:12;20.00;;;9.43;;
39888;SDS011;25563;50.844;4.308;2022-07-30T02:33:41;12.97;;;9.53;;
39888;SDS011;25563;50.844;4.308;2022-07-30T02:36:08;14.50;;;9.80;;
39888;SDS011;25563;50.844;4.308;2022-07-30T02:38:35;18.85;;;9.98;;
39888;SDS011;25563;50.844;4.308;2022-07-30T02:41:03;11.02;;;9.98;;
39888;SDS011;25563;50.844;4.308;2022-07-30T02:43:32;19.13;;;10.50;;
39888;SDS011;25563;50.844;4.308;2022-07-30T02:45:59;19.50;;;11.30;;
39888;SDS011;25563;50.844;4.308;2022-07-30T02:48:27;18.98;;;9.55;;
39888;SDS011;25563;50.844;4.308;2022-07-30T02:50:54;12.45;;;9.52;;
39888;SDS011;25563;50.844;4.308;2022-07-30T02:53:21;15.27;;;11.13;;
39888;SDS011;25563;50.844;4.308;2022-07-30T02:55:49;13.80;;;10.15;;
39888;SDS011;25563;50.844;4.308;2022-07-30T02:58:18;20.37;;;12.93;;
39888;SDS011;25563;50.844;4.308;2022-07-30T03:00:47;23.15;;;12.35;;
39888;SDS011;25563;50.844;4.308;2022-07-30T03:03:15;18.92;;;11.25;;
39888;SDS011;25563;50.844;4.308;2022-07-30T03:05:49;20.08;;;12.75;;
39888;SDS011;25563;50.844;4.308;2022-07-30T03:08:16;28.70;;;12.98;;
39888;SDS011;25563;50.844;4.308;2022-07-30T03:10:43;21.15;;;12.45;;
39888;SDS011;25563;50.844;4.308;2022-07-30T03:15:41;16.17;;;13.20;;
39888;SDS011;25563;50.844;4.308;2022-07-30T03:18:30;16.60;;;14.60;;
39888;SDS011;25563;50.844;4.308;2022-07-30T03:20:58;20.80;;;15.05;;
39888;SDS011;25563;50.844;4.308;2022-07-30T03:23:25;18.40;;;16.60;;
39888;SDS011;25563;50.844;4.308;2022-07-30T03:26:01;19.17;;;15.57;;
39888;SDS011;25563;50.844;4.308;2022-07-30T03:28:30;17.13;;;15.45;;
39888;SDS011;25563;50.844;4.308;2022-07-30T03:31:00;18.90;;;16.60;;
39888;SDS011;25563;50.844;4.308;2022-07-30T03:33:26;22.42;;;15.40;;
39888;SDS011;25563;50.844;4.308;2022-07-30T03:35:52;22.75;;;16.77;;
39888;SDS011;25563;50.844;4.308;2022-07-30T03:41:05;27.67;;;17.92;;
39888;SDS011;25563;50.844;4.308;2022-07-30T03:43:32;21.25;;;17.95;;
39888;SDS011;25563;50.844;4.308;2022-07-30T03:46:05;25.25;;;19.45;;
39888;SDS011;25563;50.844;4.308;2022-07-30T03:48:34;29.33;;;20.48;;
39888;SDS011;25563;50.844;4.308;2022-07-30T03:51:05;26.92;;;20.60;;
39888;SDS011;25563;50.844;4.308;2022-07-30T03:53:35;24.48;;;19.02;;
39888;SDS011;25563;50.844;4.308;2022-07-30T03:56:05;33.08;;;18.50;;
39888;SDS011;25563;50.844;4.308;2022-07-30T03:58:31;32.78;;;19.85;;
39888;SDS011;25563;50.844;4.308;2022-07-30T04:00:58;30.98;;;17.50;;
39888;SDS011;25563;50.844;4.308;2022-07-30T04:05:51;20.50;;;14.45;;
39888;SDS011;25563;50.844;4.308;2022-07-30T04:08:25;16.83;;;14.50;;
39888;SDS011;25563;50.844;4.308;2022-07-30T04:10:55;17.25;;;15.18;;
39888;SDS011;25563;50.844;4.308;2022-07-30T04:13:21;21.30;;;17.15;;
39888;SDS011;25563;50.844;4.308;2022-07-30T04:18:19;18.50;;;15.77;;
39888;SDS011;25563;50.844;4.308;2022-07-30T04:20:48;20.92;;;15.45;;
39888;SDS011;25563;50.844;4.308;2022-07-30T04:23:17;18.83;;;15.15;;
39888;SDS011;25563;50.844;4.308;2022-07-30T04:25:44;23.20;;;14.75;;
39888;SDS011;25563;50.844;4.308;2022-07-30T04:28:11;26.13;;;18.48;;
39888;SDS011;25563;50.844;4.308;2022-07-30T04:30:39;20.85;;;15.52;;
39888;SDS011;25563;50.844;4.308;2022-07-30T04:33:05;19.30;;;15.80;;
39888;SDS011;25563;50.844;4.308;2022-07-30T04:35:32;19.50;;;15.57;;
39888;SDS011;25563;50.844;4.308;2022-07-30T04:37:59;18.83;;;16.13;;
39888;SDS011;25563;50.844;4.308;2022-07-30T04:40:27;25.95;;;17.05;;
39888;SDS011;25563;50.844;4.308;2022-07-30T04:42:56;25.33;;;16.65;;
39888;SDS011;25563;50.844;4.308;2022-07-30T04:45:24;19.60;;;17.40;;
39888;SDS011;25563;50.844;4.308;2022-07-30T04:47:51;28.85;;;16.67;;
39888;SDS011;25563;50.844;4.308;2022-07-30T04:50:19;20.58;;;16.88;;
39888;SDS011;25563;50.844;4.308;2022-07-30T04:52:49;19.02;;;15.93;;
39888;SDS011;25563;50.844;4.308;2022-07-30T04:55:17;21.90;;;18.55;;
39888;SDS011;25563;50.844;4.308;2022-07-30T04:57:45;24.02;;;16.23;;
39888;SDS011;25563;50.844;4.308;2022-07-30T05:00:16;24.50;;;17.17;;
39888;SDS011;25563;50.844;4.308;2022-07-30T05:02:42;20.27;;;17.33;;
39888;SDS011;25563;50.844;4.308;2022-07-30T05:05:12;25.08;;;17.50;;
39888;SDS011;25563;50.844;4.308;2022-07-30T05:07:50;20.42;;;17.10;;
39888;SDS011;25563;50.844;4.308;2022-07-30T05:10:16;20.15;;;17.10;;
39888;SDS011;25563;50.844;4.308;2022-07-30T05:12:42;22.45;;;16.88;;
39888;SDS011;25563;50.844;4.308;2022-07-30T05:15:08;23.08;;;17.70;;
39888;SDS011;25563;50.844;4.308;2022-07-30T05:17:35;27.33;;;19.27;;
39888;SDS011;25563;50.844;4.308;2022-07-30T05:20:03;23.35;;;19.63;;
39888;SDS011;25563;50.844;4.308;2022-07-30T05:22:53;19.15;;;17.20;;
39888;SDS011;25563;50.844;4.308;2022-07-30T05:25:20;21.77;;;18.00;;
39888;SDS011;25563;50.844;4.308;2022-07-30T05:27:46;27.33;;;18.13;;
39888;SDS011;25563;50.844;4.308;2022-07-30T05:30:12;22.52;;;18.48;;
39888;SDS011;25563;50.844;4.308;2022-07-30T05:32:38;26.05;;;17.58;;
39888;SDS011;25563;50.844;4.308;2022-07-30T05:35:04;26.40;;;18.33;;
39888;SDS011;25563;50.844;4.308;2022-07-30T05:37:30;28.88;;;19.42;;
39888;SDS011;25563;50.844;4.308;2022-07-30T05:39:57;21.33;;;19.35;;
39888;SDS011;25563;50.844;4.308;2022-07-30T05:42:23;23.45;;;18.25;;
39888;SDS011;25563;50.844;4.308;2022-07-30T05:44:49;29.30;;;19.10;;
39888;SDS011;25563;50.844;4.308;2022-07-30T05:47:15;18.98;;;17.38;;
39888;SDS011;25563;50.844;4.308;2022-07-30T05:49:44;23.63;;;16.92;;
39888;SDS011;25563;50.844;4.308;2022-07-30T05:52:12;21.38;;;17.48;;
39888;SDS011;25563;50.844;4.308;2022-07-30T05:54:38;19.08;;;16.73;;
39888;SDS011;25563;50.844;4.308;2022-07-30T05:57:24;26.00;;;18.23;;
39888;SDS011;25563;50.844;4.308;2022-07-30T05:59:51;25.88;;;17.08;;
39888;SDS011;25563;50.844;4.308;2022-07-30T06:02:17;19.77;;;16.75;;
39888;SDS011;25563;50.844;4.308;2022-07-30T06:04:43;24.20;;;17.20;;
39888;SDS011;25563;50.844;4.308;2022-07-30T06:07:10;18.05;;;16.20;;
39888;SDS011;25563;50.844;4.308;2022-07-30T06:09:42;21.58;;;16.45;;
39888;SDS011;25563;50.844;4.308;2022-07-30T06:12:08;18.38;;;16.67;;
39888;SDS011;25563;50.844;4.308;2022-07-30T06:14:34;19.27;;;17.25;;
39888;SDS011;25563;50.844;4.308;2022-07-30T06:16:59;22.55;;;16.35;;
39888;SDS011;25563;50.844;4.308;2022-07-30T06:19:28;22.52;;;15.75;;
39888;SDS011;25563;50.844;4.308;2022-07-30T06:21:56;23.92;;;16.25;;
39888;SDS011;25563;50.844;4.308;2022-07-30T06:24:26;23.25;;;17.17;;
39888;SDS011;25563;50.844;4.308;2022-07-30T06:26:57;23.80;;;17.42;;
39888;SDS011;25563;50.844;4.308;2022-07-30T06:29:23;24.80;;;17.02;;
39888;SDS011;25563;50.844;4.308;2022-07-30T06:31:51;24.30;;;17.63;;
39888;SDS011;25563;50.844;4.308;2022-07-30T06:34:17;18.42;;;15.52;;
39888;SDS011;25563;50.844;4.308;2022-07-30T06:36:42;18.05;;;15.10;;
39888;SDS011;25563;50.844;4.308;2022-07-30T06:39:08;16.33;;;14.32;;
39888;SDS011;25563;50.844;4.308;2022-07-30T06:41:34;18.42;;;14.90;;
39888;SDS011;25563;50.844;4.308;2022-07-30T06:44:02;29.73;;;15.55;;
39888;SDS011;25563;50.844;4.308;2022-07-30T06:46:29;21.52;;;12.93;;
39888;SDS011;25563;50.844;4.308;2022-07-30T06:48:58;15.57;;;12.65;;
39888;SDS011;25563;50.844;4.308;2022-07-30T06:51:25;17.17;;;12.05;;
39888;SDS011;25563;50.844;4.308;2022-07-30T06:53:53;12.93;;;11.57;;
39888;SDS011;25563;50.844;4.308;2022-07-30T06:56:24;17.25;;;11.93;;
39888;SDS011;25563;50.844;4.308;2022-07-30T06:58:53;21.63;;;11.75;;
39888;SDS011;25563;50.844;4.308;2022-07-30T07:01:19;16.17;;;11.68;;
39888;SDS011;25563;50.844;4.308;2022-07-30T07:03:47;17.30;;;11.35;;
39888;SDS011;25563;50.844;4.308;2022-07-30T07:06:16;10.52;;;9.45;;
39888;SDS011;25563;50.844;4.308;2022-07-30T07:08:42;11.80;;;7.07;;
39888;SDS011;25563;50.844;4.308;2022-07-30T07:11:08;11.73;;;6.28;;
39888;SDS011;25563;50.844;4.308;2022-07-30T07:13:35;7.50;;;5.68;;
39888;SDS011;25563;50.844;4.308;2022-07-30T07:16:04;9.10;;;4.68;;
39888;SDS011;25563;50.844;4.308;2022-07-30T07:18:31;5.68;;;4.47;;
39888;SDS011;25563;50.844;4.308;2022-07-30T07:20:57;12.63;;;6.03;;
39888;SDS011;25563;50.844;4.308;2022-07-30T07:23:23;8.80;;;6.03;;
39888;SDS011;25563;50.844;4.308;2022-07-30T07:25:48;10.18;;;5.88;;
39888;SDS011;25563;50.844;4.308;2022-07-30T07:28:15;9.93;;;3.90;;
39888;SDS011;25563;50.844;4.308;2022-07-30T07:30:41;5.10;;;3.90;;
39888;SDS011;25563;50.844;4.308;2022-07-30T07:33:10;13.68;;;4.85;;
39888;SDS011;25563;50.844;4.308;2022-07-30T07:35:53;4.45;;;2.53;;
39888;SDS011;25563;50.844;4.308;2022-07-30T07:38:19;7.82;;;3.97;;
39888;SDS011;25563;50.844;4.308;2022-07-30T07:40:46;4.70;;;3.58;;
39888;SDS011;25563;50.844;4.308;2022-07-30T07:43:12;6.43;;;3.40;;
39888;SDS011;25563;50.844;4.308;2022-07-30T07:45:44;5.45;;;3.17;;
39888;SDS011;25563;50.844;4.308;2022-07-30T07:48:10;7.15;;;3.10;;
39888;SDS011;25563;50.844;4.308;2022-07-30T07:50:36;4.47;;;3.35;;
39888;SDS011;25563;50.844;4.308;2022-07-30T07:53:04;6.72;;;3.60;;
39888;SDS011;25563;50.844;4.308;2022-07-30T07:55:31;6.15;;;3.95;;
39888;SDS011;25563;50.844;4.308;2022-07-30T07:57:57;7.88;;;3.95;;
39888;SDS011;25563;50.844;4.308;2022-07-30T08:00:25;5.28;;;2.42;;
39888;SDS011;25563;50.844;4.308;2022-07-30T08:02:50;3.80;;;1.73;;
39888;SDS011;25563;50.844;4.308;2022-07-30T08:05:16;3.95;;;1.83;;
39888;SDS011;25563;50.844;4.308;2022-07-30T08:07:44;8.02;;;2.42;;
39888;SDS011;25563;50.844;4.308;2022-07-30T08:10:11;6.38;;;2.33;;
39888;SDS011;25563;50.844;4.308;2022-07-30T08:12:39;6.32;;;2.08;;
39888;SDS011;25563;50.844;4.308;2022-07-30T08:15:09;2.80;;;1.50;;
39888;SDS011;25563;50.844;4.308;2022-07-30T08:17:40;10.45;;;3.10;;
39888;SDS011;25563;50.844;4.308;2022-07-30T08:20:07;3.05;;;2.30;;
39888;SDS011;25563;50.844;4.308;2022-07-30T08:22:34;2.33;;;1.40;;
39888;SDS011;25563;50.844;4.308;2022-07-30T08:25:00;1.95;;;1.50;;
39888;SDS011;25563;50.844;4.308;2022-07-30T08:27:26;2.50;;;1.17;;
39888;SDS011;25563;50.844;4.308;2022-07-30T08:29:53;3.55;;;1.50;;
39888;SDS011;25563;50.844;4.308;2022-07-30T08:32:19;4.88;;;1.42;;
39888;SDS011;25563;50.844;4.308;2022-07-30T08:34:47;2.47;;;1.33;;
39888;SDS011;25563;50.844;4.308;2022-07-30T08:37:13;2.22;;;1.23;;
39888;SDS011;25563;50.844;4.308;2022-07-30T08:39:40;4.38;;;1.38;;
39888;SDS011;25563;50.844;4.308;2022-07-30T08:42:07;2.72;;;0.85;;
39888;SDS011;25563;50.844;4.308;2022-07-30T08:44:33;1.50;;;0.90;;
39888;SDS011;25563;50.844;4.308;2022-07-30T08:47:00;1.50;;;1.20;;
39888;SDS011;25563;50.844;4.308;2022-07-30T08:49:27;3.58;;;1.73;;
39888;SDS011;25563;50.844;4.308;2022-07-30T08:51:53;2.13;;;1.15;;
39888;SDS011;25563;50.844;4.308;2022-07-30T08:54:20;2.58;;;1.05;;
39888;SDS011;25563;50.844;4.308;2022-07-30T08:56:46;5.10;;;1.52;;
39888;SDS011;25563;50.844;4.308;2022-07-30T08:59:17;2.33;;;1.05;;
39888;SDS011;25563;50.844;4.308;2022-07-30T09:01:43;2.40;;;0.93;;
39888;SDS011;25563;50.844;4.308;2022-07-30T09:04:09;2.15;;;1.25;;
39888;SDS011;25563;50.844;4.308;2022-07-30T09:06:35;6.78;;;1.35;;
39888;SDS011;25563;50.844;4.308;2022-07-30T09:09:02;1.45;;;1.05;;
39888;SDS011;25563;50.844;4.308;2022-07-30T09:11:28;2.28;;;1.30;;
39888;SDS011;25563;50.844;4.308;2022-07-30T09:13:53;4.22;;;1.25;;
39888;SDS011;25563;50.844;4.308;2022-07-30T09:16:20;3.10;;;1.63;;
39888;SDS011;25563;50.844;4.308;2022-07-30T09:18:52;3.45;;;1.00;;
39888;SDS011;25563;50.844;4.308;2022-07-30T09:21:20;2.88;;;1.10;;
39888;SDS011;25563;50.844;4.308;2022-07-30T09:23:57;3.05;;;1.13;;
39888;SDS011;25563;50.844;4.308;2022-07-30T09:26:30;1.52;;;0.95;;
39888;SDS011;25563;50.844;4.308;2022-07-30T09:29:19;3.05;;;1.08;;
39888;SDS011;25563;50.844;4.308;2022-07-30T09:31:56;3.83;;;1.10;;
39888;SDS011;25563;50.844;4.308;2022-07-30T09:34:27;2.92;;;1.30;;
39888;SDS011;25563;50.844;4.308;2022-07-30T09:36:58;3.05;;;0.90;;
39888;SDS011;25563;50.844;4.308;2022-07-30T09:41:59;2.78;;;1.05;;
39888;SDS011;25563;50.844;4.308;2022-07-30T09:44:26;2.55;;;1.13;;
39888;SDS011;25563;50.844;4.308;2022-07-30T09:46:54;2.38;;;1.08;;
39888;SDS011;25563;50.844;4.308;2022-07-30T09:49:24;5.03;;;1.50;;
39888;SDS011;25563;50.844;4.308;2022-07-30T09:51:52;3.13;;;1.15;;
39888;SDS011;25563;50.844;4.308;2022-07-30T09:54:19;5.65;;;1.38;;
39888;SDS011;25563;50.844;4.308;2022-07-30T09:56:45;2.50;;;0.88;;
39888;SDS011;25563;50.844;4.308;2022-07-30T09:59:27;5.63;;;1.20;;
39888;SDS011;25563;50.844;4.308;2022-07-30T10:01:58;2.70;;;1.10;;
39888;SDS011;25563;50.844;4.308;2022-07-30T10:04:28;14.13;;;1.25;;
39888;SDS011;25563;50.844;4.308;2022-07-30T10:09:48;3.90;;;1.25;;
39888;SDS011;25563;50.844;4.308;2022-07-30T10:12:31;2.97;;;1.10;;
39888;SDS011;25563;50.844;4.308;2022-07-30T10:15:19;3.13;;;1.60;;
39888;SDS011;25563;50.844;4.308;2022-07-30T10:17:49;3.92;;;1.98;;
39888;SDS011;25563;50.844;4.308;2022-07-30T10:20:16;5.30;;;1.58;;
39888;SDS011;25563;50.844;4.308;2022-07-30T10:22:42;2.15;;;1.35;;
39888;SDS011;25563;50.844;4.308;2022-07-30T10:25:09;5.82;;;1.33;;
39888;SDS011;25563;50.844;4.308;2022-07-30T10:27:36;4.55;;;1.33;;
39888;SDS011;25563;50.844;4.308;2022-07-30T10:30:05;3.55;;;1.60;;
39888;SDS011;25563;50.844;4.308;2022-07-30T10:35:18;2.15;;;1.50;;
39888;SDS011;25563;50.844;4.308;2022-07-30T10:37:46;3.60;;;1.13;;
39888;SDS011;25563;50.844;4.308;2022-07-30T10:40:24;3.67;;;1.27;;
39888;SDS011;25563;50.844;4.308;2022-07-30T10:43:21;2.88;;;0.93;;
39888;SDS011;25563;50.844;4.308;2022-07-30T10:49:25;4.07;;;1.40;;
39888;SDS011;25563;50.844;4.308;2022-07-30T10:51:53;2.83;;;1.40;;
39888;SDS011;25563;50.844;4.308;2022-07-30T10:54:39;2.58;;;1.08;;
39888;SDS011;25563;50.844;4.308;2022-07-30T10:57:29;10.20;;;1.73;;
39888;SDS011;25563;50.844;4.308;2022-07-30T11:03:09;6.63;;;1.50;;
39888;SDS011;25563;50.844;4.308;2022-07-30T11:05:48;3.42;;;1.05;;
39888;SDS011;25563;50.844;4.308;2022-07-30T11:13:49;2.15;;;1.08;;
39888;SDS011;25563;50.844;4.308;2022-07-30T11:16:21;2.80;;;1.35;;
39888;SDS011;25563;50.844;4.308;2022-07-30T11:19:04;2.17;;;1.10;;
39888;SDS011;25563;50.844;4.308;2022-07-30T11:21:42;4.75;;;1.30;;
39888;SDS011;25563;50.844;4.308;2022-07-30T11:32:40;2.40;;;0.80;;
39888;SDS011;25563;50.844;4.308;2022-07-30T11:35:20;2.80;;;1.00;;
39888;SDS011;25563;50.844;4.308;2022-07-30T11:45:50;3.78;;;0.88;;
39888;SDS011;25563;50.844;4.308;2022-07-30T11:48:38;2.67;;;1.00;;
39888;SDS011;25563;50.844;4.308;2022-07-30T11:51:06;2.85;;;0.90;;
39888;SDS011;25563;50.844;4.308;2022-07-30T11:53:40;3.83;;;1.40;;
39888;SDS011;25563;50.844;4.308;2022-07-30T11:56:08;2.53;;;1.08;;
39888;SDS011;25563;50.844;4.308;2022-07-30T11:58:36;2.60;;;1.10;;
39888;SDS011;25563;50.844;4.308;2022-07-30T12:01:12;5.60;;;1.70;;
39888;SDS011;25563;50.844;4.308;2022-07-30T12:03:44;4.97;;;0.98;;
39888;SDS011;25563;50.844;4.308;2022-07-30T12:06:13;2.38;;;0.90;;
39888;SDS011;25563;50.844;4.308;2022-07-30T12:08:48;3.45;;;0.98;;
39888;SDS011;25563;50.844;4.308;2022-07-30T12:11:15;3.85;;;0.88;;
39888;SDS011;25563;50.844;4.308;2022-07-30T12:13:41;3.40;;;0.88;;
39888;SDS011;25563;50.844;4.308;2022-07-30T12:16:18;6.38;;;0.98;;
39888;SDS011;25563;50.844;4.308;2022-07-30T12:18:45;3.63;;;0.90;;
39888;SDS011;25563;50.844;4.308;2022-07-30T12:21:15;2.78;;;0.70;;
39888;SDS011;25563;50.844;4.308;2022-07-30T12:23:55;5.32;;;0.93;;
39888;SDS011;25563;50.844;4.308;2022-07-30T12:26:39;1.85;;;0.90;;
39888;SDS011;25563;50.844;4.308;2022-07-30T12:29:10;3.28;;;1.00;;
39888;SDS011;25563;50.844;4.308;2022-07-30T12:31:41;2.33;;;0.85;;
39888;SDS011;25563;50.844;4.308;2022-07-30T12:34:22;3.35;;;0.82;;
39888;SDS011;25563;50.844;4.308;2022-07-30T12:36:50;3.40;;;1.05;;
39888;SDS011;25563;50.844;4.308;2022-07-30T12:39:25;4.25;;;0.98;;
39888;SDS011;25563;50.844;4.308;2022-07-30T12:41:53;2.58;;;0.80;;
39888;SDS011;25563;50.844;4.308;2022-07-30T12:47:21;1.55;;;1.10;;
39888;SDS011;25563;50.844;4.308;2022-07-30T12:49:54;2.30;;;0.80;;
39888;SDS011;25563;50.844;4.308;2022-07-30T12:52:35;2.80;;;0.80;;
39888;SDS011;25563;50.844;4.308;2022-07-30T12:55:11;4.20;;;0.88;;
39888;SDS011;25563;50.844;4.308;2022-07-30T13:00:45;1.52;;;0.70;;
39888;SDS011;25563;50.844;4.308;2022-07-30T13:03:22;4.20;;;0.70;;
39888;SDS011;25563;50.844;4.308;2022-07-30T13:05:54;2.50;;;0.77;;
39888;SDS011;25563;50.844;4.308;2022-07-30T13:08:54;4.18;;;0.93;;
39888;SDS011;25563;50.844;4.308;2022-07-30T13:11:25;2.42;;;1.00;;
39888;SDS011;25563;50.844;4.308;2022-07-30T13:14:05;3.15;;;0.82;;
39888;SDS011;25563;50.844;4.308;2022-07-30T13:16:39;4.07;;;1.55;;
39888;SDS011;25563;50.844;4.308;2022-07-30T13:19:07;11.35;;;1.33;;
39888;SDS011;25563;50.844;4.308;2022-07-30T13:21:40;3.15;;;1.40;;
39888;SDS011;25563;50.844;4.308;2022-07-30T13:24:07;5.20;;;1.30;;
39888;SDS011;25563;50.844;4.308;2022-07-30T13:26:35;4.93;;;1.35;;
39888;SDS011;25563;50.844;4.308;2022-07-30T13:29:02;2.47;;;1.60;;
39888;SDS011;25563;50.844;4.308;2022-07-30T13:31:30;3.22;;;1.10;;
39888;SDS011;25563;50.844;4.308;2022-07-30T13:33:58;3.38;;;1.45;;
39888;SDS011;25563;50.844;4.308;2022-07-30T13:36:28;3.47;;;1.02;;
39888;SDS011;25563;50.844;4.308;2022-07-30T13:38:54;3.15;;;1.10;;
39888;SDS011;25563;50.844;4.308;2022-07-30T13:41:20;4.40;;;1.52;;
39888;SDS011;25563;50.844;4.308;2022-07-30T13:43:46;3.28;;;1.30;;
39888;SDS011;25563;50.844;4.308;2022-07-30T13:46:12;5.75;;;1.00;;
39888;SDS011;25563;50.844;4.308;2022-07-30T13:48:38;2.92;;;1.20;;
39888;SDS011;25563;50.844;4.308;2022-07-30T13:51:04;3.92;;;1.15;;
39888;SDS011;25563;50.844;4.308;2022-07-30T13:53:30;6.45;;;1.02;;
39888;SDS011;25563;50.844;4.308;2022-07-30T13:55:57;7.20;;;1.60;;
39888;SDS011;25563;50.844;4.308;2022-07-30T13:58:27;6.43;;;1.08;;
39888;SDS011;25563;50.844;4.308;2022-07-30T14:00:55;6.45;;;1.23;;
39888;SDS011;25563;50.844;4.308;2022-07-30T14:03:22;3.38;;;0.80;;
39888;SDS011;25563;50.844;4.308;2022-07-30T14:05:49;1.88;;;0.80;;
39888;SDS011;25563;50.844;4.308;2022-07-30T14:08:16;2.60;;;0.65;;
39888;SDS011;25563;50.844;4.308;2022-07-30T14:10:46;1.42;;;0.77;;
39888;SDS011;25563;50.844;4.308;2022-07-30T14:13:14;10.30;;;2.88;;
39888;SDS011;25563;50.844;4.308;2022-07-30T14:15:40;8.30;;;3.00;;
39888;SDS011;25563;50.844;4.308;2022-07-30T14:18:05;3.40;;;0.90;;
39888;SDS011;25563;50.844;4.308;2022-07-30T14:20:31;3.85;;;1.95;;
39888;SDS011;25563;50.844;4.308;2022-07-30T14:22:58;2.53;;;1.58;;
39888;SDS011;25563;50.844;4.308;2022-07-30T14:25:25;2.55;;;1.08;;
39888;SDS011;25563;50.844;4.308;2022-07-30T14:27:52;4.28;;;0.95;;
39888;SDS011;25563;50.844;4.308;2022-07-30T14:30:17;2.60;;;0.80;;
39888;SDS011;25563;50.844;4.308;2022-07-30T14:32:47;1.67;;;1.10;;
39888;SDS011;25563;50.844;4.308;2022-07-30T14:35:17;1.70;;;0.68;;
39888;SDS011;25563;50.844;4.308;2022-07-30T14:37:52;5.40;;;0.90;;
39888;SDS011;25563;50.844;4.308;2022-07-30T14:40:18;2.28;;;0.93;;
39888;SDS011;25563;50.844;4.308;2022-07-30T14:42:45;1.10;;;0.68;;
39888;SDS011;25563;50.844;4.308;2022-07-30T14:45:13;2.03;;;0.80;;
39888;SDS011;25563;50.844;4.308;2022-07-30T14:47:43;3.17;;;0.73;;
39888;SDS011;25563;50.844;4.308;2022-07-30T14:50:08;2.42;;;0.70;;
39888;SDS011;25563;50.844;4.308;2022-07-30T14:52:36;1.52;;;0.85;;
39888;SDS011;25563;50.844;4.308;2022-07-30T14:55:07;1.45;;;0.98;;
39888;SDS011;25563;50.844;4.308;2022-07-30T14:57:35;3.50;;;0.88;;
39888;SDS011;25563;50.844;4.308;2022-07-30T15:00:02;2.83;;;0.70;;
39888;SDS011;25563;50.844;4.308;2022-07-30T15:02:32;2.17;;;0.60;;
39888;SDS011;25563;50.844;4.308;2022-07-30T15:04:59;2.50;;;1.00;;
39888;SDS011;25563;50.844;4.308;2022-07-30T15:07:24;3.28;;;0.70;;
39888;SDS011;25563;50.844;4.308;2022-07-30T15:09:54;5.30;;;0.85;;
39888;SDS011;25563;50.844;4.308;2022-07-30T15:12:21;2.20;;;0.80;;
39888;SDS011;25563;50.844;4.308;2022-07-30T15:14:47;7.25;;;4.13;;
39888;SDS011;25563;50.844;4.308;2022-07-30T15:17:14;5.80;;;1.15;;
39888;SDS011;25563;50.844;4.308;2022-07-30T15:19:42;2.20;;;0.90;;
39888;SDS011;25563;50.844;4.308;2022-07-30T15:22:09;3.25;;;1.60;;
39888;SDS011;25563;50.844;4.308;2022-07-30T15:24:35;2.13;;;0.90;;
39888;SDS011;25563;50.844;4.308;2022-07-30T15:27:04;3.50;;;0.98;;
39888;SDS011;25563;50.844;4.308;2022-07-30T15:29:31;2.60;;;1.00;;
39888;SDS011;25563;50.844;4.308;2022-07-30T15:31:57;2.72;;;0.85;;
39888;SDS011;25563;50.844;4.308;2022-07-30T15:34:26;1.95;;;1.17;;
39888;SDS011;25563;50.844;4.308;2022-07-30T15:36:57;1.88;;;0.90;;
39888;SDS011;25563;50.844;4.308;2022-07-30T15:39:24;2.00;;;0.60;;
39888;SDS011;25563;50.844;4.308;2022-07-30T15:41:50;3.75;;;0.80;;
39888;SDS011;25563;50.844;4.308;2022-07-30T15:44:18;1.40;;;0.93;;
39888;SDS011;25563;50.844;4.308;2022-07-30T15:46:44;1.88;;;0.90;;
39888;SDS011;25563;50.844;4.308;2022-07-30T15:49:10;2.80;;;1.10;;